Dominique Rémy

Chefscout - FC Lorient
7 Nov 2027
Sonntag
Verarbeitung

Persönlichkeit

Anpassungsfähigkeit (2) Ehrgeiz (15) Kontroverse (15) Loyalität (13) Druck (7) Professionalität (1) Fairness (7) Temperament (18)

Profil

Trainerstil Demokratisch
Lizenz Kontinentale A
Entschlossenheit 8
Menschenführung 11
Motivation 12
Disziplin 4
Arbeitszufriedenheit
100%
Ermüdung
0%
Rolle Chefscout
Gehalt 81.3K p/W
Vertrag 14.03.2029

Leistung

Verhalten Gut
Trainingseffektivität
39%
Spielerentwicklung
20%
Verletzungsprävention
50%
Taktische Umsetzung
65%

Aktuell beobachtet

84
Spieler Verein Status Fähigkeit Vertrauen Beobachtet Zuletzt beobachtet Letzte Stimme
Pape Diong Westerlo Verloren 118 / 133 40% 2 23.08.2027 -
Ignacio Pérez Cobresal Aktiv 100 / 92 40% 1 23.08.2027 -
Elias Baum Eintracht Frankfurt Aktiv 135 / 137 40% 1 23.08.2027 -
Rafael Vargas Cortulua Aktiv 82 / 99 40% 1 22.08.2027 -
Michael Pistiner Bnei Yehuda Aktiv 100 / 101 40% 1 22.08.2027 -
Juma Bah Manchester City Aktiv 128 / 129 40% 1 18.08.2027 -
Honest Ahanor Fiorentina Aktiv 138 / 152 40% 1 18.08.2027 -
Alejandro Leiva Beitar Jerusalem Aktiv 93 / 109 40% 1 18.08.2027 -
Eliás Montiel Athletic Bilbao Aktiv 130 / 131 40% 1 16.08.2027 -
Christ Inao Oulaï Fiorentina Aktiv 142 / 155 40% 1 16.08.2027 -
Bahmed Deuff FC Metz Aktiv 115 / 126 40% 2 15.08.2027 -
Lautaro Dufur Rentistas Aktiv 105 / 95 40% 2 15.08.2027 -
Enzo Cardozo Huracán Aktiv 101 / 103 40% 1 15.08.2027 -
Ignacio Fernández Boston River Aktiv 99 / 88 40% 2 14.08.2027 -
Juan Diego Perdomo Depor Aktiv 79 / 86 40% 3 14.08.2027 -
Lucas Velásquez Huachipato Aktiv 101 / 113 40% 5 13.08.2027 -
Augusto Bando Ascoli Aktiv 105 / 112 40% 8 13.08.2027 -
Santino Gatti Belgrano Aktiv 106 / 88 40% 1 13.08.2027 -
Hosea Michael Remo Stars Aktiv 98 / 101 40% 4 12.08.2027 -
Mathys Angély VfL Wolfsburg Aktiv 109 / 130 40% 4 12.08.2027 -
Axel Cabellos Cesar Vallejo Aktiv 93 / 104 40% 3 10.08.2027 -
Mohamed Bolivar Barranquilla Aktiv 97 / 79 40% 3 10.08.2027 -
Vasco Santos Oliveirense Aktiv 100 / 110 40% 9 09.08.2027 -
Jonathan Do Marcolino Alavés Aktiv 93 / 99 40% 1 09.08.2027 -
Charlie Gray Córdoba Aktiv 89 / 109 40% 4 08.08.2027 -
Godwin Oham Warri Wolves Aktiv 87 / 80 40% 2 07.08.2027 -
Ravshan Xayrullayev Bukhara Aktiv 95 / 100 40% 1 07.08.2027 -
Jarvis Thornton Sheffield Wednesday Aktiv 112 / 119 40% 3 05.08.2027 -
Yaroslav Matyukhin Alashkert Aktiv 111 / 121 40% 2 05.08.2027 -
Martim Cunha Porto Aktiv 105 / 110 40% 6 02.08.2027 -
Mohamed Moussa Koïta Persik Aktiv 91 / 119 40% 5 02.08.2027 -
Fabián Correa Barranquilla Aktiv 87 / 108 40% 3 30.07.2027 -
Yassine Khalifi Charleroi Aktiv 114 / 113 40% 3 30.07.2027 -
Dylan Gorosito Boca Juniors Aktiv 117 / 121 40% 1 30.07.2027 -
Simone Kosijer Triestina Aktiv 96 / 102 40% 3 27.07.2027 -
Thiago Helguera Braga Aktiv 119 / 122 40% 2 27.07.2027 -
Axel Tape Bayer Leverkusen Aktiv 129 / 127 40% 2 24.07.2027 -
Hlompho Billiat Free State Stars Aktiv 91 / 90 40% 7 22.07.2027 -
Rabby Nzingoula West Bromwich Albion Aktiv 117 / 127 40% 1 22.07.2027 -
Vasyl Bundash Metalurh Zaporizhzhia Aktiv 104 / 101 40% 2 21.07.2027 -
Ezra Mayers West Ham United Aktiv 116 / 124 40% 2 21.07.2027 -
Denys Smetana Inhulets Aktiv 99 / 98 40% 3 20.07.2027 -
Ibrahim Coulibaly Clermont Foot Aktiv 111 / 120 40% 1 17.07.2027 -
Olalekan Adeleke Remo Stars Aktiv 90 / 93 40% 3 16.07.2027 -
Musa Danjuma Hatayspor Aktiv 99 / 97 40% 3 15.07.2027 -
Mandla Mothiba Free State Stars Aktiv 92 / 106 40% 2 14.07.2027 -
Kaick FC Dallas Aktiv 95 / 121 40% 3 13.07.2027 -
Martin Kern Puskas Akademia Aktiv 106 / 116 40% 6 11.07.2027 -
Jhoan Pinto Union Magdalena Aktiv 89 / 83 40% 1 11.07.2027 -
Charalabos Erotokritou Doxa Aktiv 92 / 93 40% 2 06.07.2027 -
Mikhail Ryadno Baltika Aktiv 98 / 111 40% 4 26.06.2027 -
Andrija Bulatović RC Lens Aktiv 129 / 131 40% 1 10.06.2027 -
Elie N'Gatta Sochaux Aktiv 93 / 98 40% 4 08.06.2027 -
Wilmar Garcia Cortulua Aktiv 122 / 122 68% 1 01.06.2027 Befürworten
Andile Zwane RC Lens Aktiv 124 / 124 67% 1 01.06.2027 Befürworten
Edwar López Deportes Tolima Aktiv 117 / 117 67% 1 01.06.2027 Befürworten
Jellert Van Landschoot Brighton Aktiv 120 / 120 66% 1 01.06.2027 Befürworten
Julien Maggiotti Stade Lavallois Verloren 112 / 121 76% 1 01.06.2027 -
Arjan Malić Sturm Graz Aktiv 123 / 114 40% 1 31.01.2027 -
Emirhan Başyiğit Sivasspor Aktiv 117 / 112 40% 1 31.01.2027 -
Joaquin Seys Club Brugge Aktiv 131 / 140 40% 2 30.01.2027 -
Marius Courcoul Olympique de Marseille Aktiv 114 / 120 40% 1 29.01.2027 -
Brooklyn Raines New England Revolution Aktiv 119 / 105 40% 1 29.01.2027 -
Milan Roganović Partizan Aktiv 104 / 105 40% 1 27.01.2027 -
Mathis Amougou RC Strasbourg Aktiv 119 / 132 40% 1 27.01.2027 -
Alexis Vossah Toulouse FC Aktiv 117 / 128 40% 1 26.01.2027 -
Mohammed El Âdfaoui KAA Gent Aktiv 113 / 122 40% 1 25.01.2027 -
Mathieu Brun Chamois Niortais Aktiv 119 / 122 40% 1 25.01.2027 -
Sead Hakšabanović Anderlecht Aktiv 119 / 119 66% 1 18.01.2027 Befürworten
Adrián Parra Udinese Aktiv 117 / 117 67% 1 18.01.2027 Befürworten
Owen Lunt Crewe Alexandra Aktiv 100 / 109 40% 1 13.01.2027 -
Salvador Blopá Sporting CP Aktiv 116 / 122 40% 1 13.01.2027 -
Ignacio Perruzzi San Lorenzo Aktiv 121 / 122 40% 2 12.01.2027 -
Juan Giménez Athletic Bilbao Aktiv 116 / 126 40% 1 11.01.2027 -
Sergi Domínguez Dinamo Zagreb Aktiv 123 / 127 40% 1 09.01.2027 -
Kyriani Sabbe Club Brugge Aktiv 115 / 121 40% 1 09.01.2027 -
Mathis Labro Westerlo Aktiv 85 / 98 40% 1 07.01.2027 -
Tylel Tati AJ Auxerre Aktiv 124 / 120 40% 1 05.01.2027 -
Sean Fusire Sheffield Wednesday Aktiv 106 / 103 40% 1 05.01.2027 -
Lucas Agazzi Benfica Aktiv 120 / 137 40% 1 04.01.2027 -
Riyad Idrissi Cagliari Aktiv 126 / 115 40% 1 01.01.2027 -
Shunsuke Saito Westerlo Aktiv 102 / 112 40% 1 10.08.2026 -
Sindre Walle Egeli Ipswich Town Aktiv 120 / 132 40% 1 06.08.2026 -
Julián Vignolo Toulouse FC Aktiv 104 / 102 40% 1 01.08.2026 -